sensor_id;sensor_type;location;lat;lon;timestamp;P1;durP1;ratioP1;P2;durP2;ratioP2
8895;SDS011;4484;48.928;10.066;2023-03-14T00:00:23;0.63;;;0.50;;
8895;SDS011;4484;48.928;10.066;2023-03-14T00:02:53;1.43;;;0.50;;
8895;SDS011;4484;48.928;10.066;2023-03-14T00:05:20;0.40;;;0.20;;
8895;SDS011;4484;48.928;10.066;2023-03-14T00:07:47;0.60;;;0.40;;
8895;SDS011;4484;48.928;10.066;2023-03-14T00:10:14;1.30;;;0.50;;
8895;SDS011;4484;48.928;10.066;2023-03-14T00:12:41;1.70;;;0.50;;
8895;SDS011;4484;48.928;10.066;2023-03-14T00:15:08;0.40;;;0.30;;
8895;SDS011;4484;48.928;10.066;2023-03-14T00:17:36;0.70;;;0.40;;
8895;SDS011;4484;48.928;10.066;2023-03-14T00:20:04;2.27;;;0.50;;
8895;SDS011;4484;48.928;10.066;2023-03-14T00:22:37;0.40;;;0.33;;
8895;SDS011;4484;48.928;10.066;2023-03-14T00:25:06;0.50;;;0.40;;
8895;SDS011;4484;48.928;10.066;2023-03-14T00:27:34;0.60;;;0.30;;
8895;SDS011;4484;48.928;10.066;2023-03-14T00:30:01;0.60;;;0.47;;
8895;SDS011;4484;48.928;10.066;2023-03-14T00:32:28;1.03;;;0.70;;
8895;SDS011;4484;48.928;10.066;2023-03-14T00:34:55;1.07;;;0.70;;
8895;SDS011;4484;48.928;10.066;2023-03-14T00:37:22;5.33;;;1.80;;
8895;SDS011;4484;48.928;10.066;2023-03-14T00:39:50;2.97;;;1.27;;
8895;SDS011;4484;48.928;10.066;2023-03-14T00:42:17;0.70;;;0.47;;
8895;SDS011;4484;48.928;10.066;2023-03-14T00:44:44;0.40;;;0.40;;
8895;SDS011;4484;48.928;10.066;2023-03-14T00:47:11;1.20;;;0.40;;
8895;SDS011;4484;48.928;10.066;2023-03-14T00:49:38;0.20;;;0.20;;
8895;SDS011;4484;48.928;10.066;2023-03-14T00:52:04;2.87;;;0.60;;
8895;SDS011;4484;48.928;10.066;2023-03-14T00:54:31;0.30;;;0.30;;
8895;SDS011;4484;48.928;10.066;2023-03-14T00:56:58;0.20;;;0.20;;
8895;SDS011;4484;48.928;10.066;2023-03-14T00:59:25;0.20;;;0.20;;
8895;SDS011;4484;48.928;10.066;2023-03-14T01:01:52;1.40;;;0.20;;
8895;SDS011;4484;48.928;10.066;2023-03-14T01:04:19;0.20;;;0.20;;
8895;SDS011;4484;48.928;10.066;2023-03-14T01:06:45;0.63;;;0.20;;
8895;SDS011;4484;48.928;10.066;2023-03-14T01:09:12;1.00;;;0.20;;
8895;SDS011;4484;48.928;10.066;2023-03-14T01:11:40;0.33;;;0.30;;
8895;SDS011;4484;48.928;10.066;2023-03-14T01:14:07;0.20;;;0.20;;
8895;SDS011;4484;48.928;10.066;2023-03-14T01:16:34;0.40;;;0.20;;
8895;SDS011;4484;48.928;10.066;2023-03-14T01:19:01;0.10;;;0.10;;
8895;SDS011;4484;48.928;10.066;2023-03-14T01:21:30;0.50;;;0.50;;
8895;SDS011;4484;48.928;10.066;2023-03-14T01:23:59;0.20;;;0.20;;
8895;SDS011;4484;48.928;10.066;2023-03-14T01:26:28;0.10;;;0.10;;
8895;SDS011;4484;48.928;10.066;2023-03-14T01:28:58;0.20;;;0.20;;
8895;SDS011;4484;48.928;10.066;2023-03-14T01:31:26;0.30;;;0.20;;
8895;SDS011;4484;48.928;10.066;2023-03-14T01:33:53;0.20;;;0.20;;
8895;SDS011;4484;48.928;10.066;2023-03-14T01:36:20;0.57;;;0.20;;
8895;SDS011;4484;48.928;10.066;2023-03-14T01:38:47;0.20;;;0.20;;
8895;SDS011;4484;48.928;10.066;2023-03-14T01:41:16;0.20;;;0.20;;
8895;SDS011;4484;48.928;10.066;2023-03-14T01:43:46;0.43;;;0.20;;
8895;SDS011;4484;48.928;10.066;2023-03-14T01:48:55;0.83;;;0.30;;
8895;SDS011;4484;48.928;10.066;2023-03-14T01:54:04;2.37;;;0.30;;
8895;SDS011;4484;48.928;10.066;2023-03-14T01:56:36;0.20;;;0.20;;
8895;SDS011;4484;48.928;10.066;2023-03-14T01:59:06;0.50;;;0.20;;
8895;SDS011;4484;48.928;10.066;2023-03-14T02:01:34;0.67;;;0.40;;
8895;SDS011;4484;48.928;10.066;2023-03-14T02:04:02;0.23;;;0.23;;
8895;SDS011;4484;48.928;10.066;2023-03-14T02:06:42;0.10;;;0.10;;
8895;SDS011;4484;48.928;10.066;2023-03-14T02:09:18;0.20;;;0.20;;
8895;SDS011;4484;48.928;10.066;2023-03-14T02:11:46;1.50;;;0.40;;
8895;SDS011;4484;48.928;10.066;2023-03-14T02:14:35;1.00;;;0.30;;
8895;SDS011;4484;48.928;10.066;2023-03-14T02:17:19;0.33;;;0.20;;
8895;SDS011;4484;48.928;10.066;2023-03-14T02:20:13;0.20;;;0.20;;
8895;SDS011;4484;48.928;10.066;2023-03-14T02:23:00;0.10;;;0.10;;
8895;SDS011;4484;48.928;10.066;2023-03-14T02:28:14;1.90;;;0.20;;
8895;SDS011;4484;48.928;10.066;2023-03-14T02:30:41;0.10;;;0.10;;
8895;SDS011;4484;48.928;10.066;2023-03-14T02:33:12;0.20;;;0.20;;
8895;SDS011;4484;48.928;10.066;2023-03-14T02:35:51;0.53;;;0.30;;
8895;SDS011;4484;48.928;10.066;2023-03-14T02:38:31;0.17;;;0.17;;
8895;SDS011;4484;48.928;10.066;2023-03-14T02:41:04;0.50;;;0.27;;
8895;SDS011;4484;48.928;10.066;2023-03-14T02:43:37;0.10;;;0.10;;
8895;SDS011;4484;48.928;10.066;2023-03-14T02:46:12;0.97;;;0.20;;
8895;SDS011;4484;48.928;10.066;2023-03-14T02:51:11;0.97;;;0.20;;
8895;SDS011;4484;48.928;10.066;2023-03-14T02:53:40;0.20;;;0.13;;
8895;SDS011;4484;48.928;10.066;2023-03-14T02:56:11;0.20;;;0.20;;
8895;SDS011;4484;48.928;10.066;2023-03-14T02:58:38;0.20;;;0.20;;
8895;SDS011;4484;48.928;10.066;2023-03-14T03:01:16;1.03;;;0.20;;
8895;SDS011;4484;48.928;10.066;2023-03-14T03:03:43;0.10;;;0.10;;
8895;SDS011;4484;48.928;10.066;2023-03-14T03:06:10;0.50;;;0.40;;
8895;SDS011;4484;48.928;10.066;2023-03-14T03:08:37;1.50;;;0.20;;
8895;SDS011;4484;48.928;10.066;2023-03-14T03:11:05;0.20;;;0.20;;
8895;SDS011;4484;48.928;10.066;2023-03-14T03:13:33;0.93;;;0.50;;
8895;SDS011;4484;48.928;10.066;2023-03-14T03:16:02;0.27;;;0.20;;
8895;SDS011;4484;48.928;10.066;2023-03-14T03:18:30;2.30;;;0.60;;
8895;SDS011;4484;48.928;10.066;2023-03-14T03:21:04;0.20;;;0.20;;
8895;SDS011;4484;48.928;10.066;2023-03-14T03:23:32;0.10;;;0.10;;
8895;SDS011;4484;48.928;10.066;2023-03-14T03:25:58;0.20;;;0.20;;
8895;SDS011;4484;48.928;10.066;2023-03-14T03:28:25;0.30;;;0.20;;
8895;SDS011;4484;48.928;10.066;2023-03-14T03:30:53;0.53;;;0.20;;
8895;SDS011;4484;48.928;10.066;2023-03-14T03:33:20;0.10;;;0.10;;
8895;SDS011;4484;48.928;10.066;2023-03-14T03:35:49;0.10;;;0.10;;
8895;SDS011;4484;48.928;10.066;2023-03-14T03:38:23;0.17;;;0.17;;
8895;SDS011;4484;48.928;10.066;2023-03-14T03:40:52;0.20;;;0.20;;
8895;SDS011;4484;48.928;10.066;2023-03-14T03:43:19;0.20;;;0.20;;
8895;SDS011;4484;48.928;10.066;2023-03-14T03:45:47;0.33;;;0.30;;
8895;SDS011;4484;48.928;10.066;2023-03-14T03:48:14;0.50;;;0.30;;
8895;SDS011;4484;48.928;10.066;2023-03-14T03:50:45;0.10;;;0.10;;
8895;SDS011;4484;48.928;10.066;2023-03-14T03:53:15;0.40;;;0.20;;
8895;SDS011;4484;48.928;10.066;2023-03-14T03:55:58;0.60;;;0.30;;
8895;SDS011;4484;48.928;10.066;2023-03-14T03:58:25;0.20;;;0.20;;
8895;SDS011;4484;48.928;10.066;2023-03-14T04:00:51;1.60;;;0.30;;
8895;SDS011;4484;48.928;10.066;2023-03-14T04:03:18;0.20;;;0.20;;
8895;SDS011;4484;48.928;10.066;2023-03-14T04:05:45;0.20;;;0.20;;
8895;SDS011;4484;48.928;10.066;2023-03-14T04:08:12;0.20;;;0.20;;
8895;SDS011;4484;48.928;10.066;2023-03-14T04:10:39;1.40;;;0.30;;
8895;SDS011;4484;48.928;10.066;2023-03-14T04:13:13;0.30;;;0.30;;
8895;SDS011;4484;48.928;10.066;2023-03-14T04:15:42;1.13;;;0.30;;
8895;SDS011;4484;48.928;10.066;2023-03-14T04:18:22;0.30;;;0.30;;
8895;SDS011;4484;48.928;10.066;2023-03-14T04:20:55;1.60;;;0.27;;
8895;SDS011;4484;48.928;10.066;2023-03-14T04:23:29;0.33;;;0.20;;
8895;SDS011;4484;48.928;10.066;2023-03-14T04:25:56;1.03;;;0.20;;
8895;SDS011;4484;48.928;10.066;2023-03-14T04:28:23;0.13;;;0.13;;
8895;SDS011;4484;48.928;10.066;2023-03-14T04:30:51;0.80;;;0.30;;
8895;SDS011;4484;48.928;10.066;2023-03-14T04:33:21;0.73;;;0.30;;
8895;SDS011;4484;48.928;10.066;2023-03-14T04:35:55;2.10;;;0.40;;
8895;SDS011;4484;48.928;10.066;2023-03-14T04:38:23;2.13;;;0.40;;
8895;SDS011;4484;48.928;10.066;2023-03-14T04:40:51;2.30;;;0.40;;
8895;SDS011;4484;48.928;10.066;2023-03-14T04:43:20;0.60;;;0.47;;
8895;SDS011;4484;48.928;10.066;2023-03-14T04:45:55;0.30;;;0.30;;
8895;SDS011;4484;48.928;10.066;2023-03-14T04:48:24;0.37;;;0.30;;
8895;SDS011;4484;48.928;10.066;2023-03-14T04:50:53;0.83;;;0.40;;
8895;SDS011;4484;48.928;10.066;2023-03-14T04:53:20;0.60;;;0.30;;
8895;SDS011;4484;48.928;10.066;2023-03-14T04:55:50;0.50;;;0.50;;
8895;SDS011;4484;48.928;10.066;2023-03-14T04:58:20;2.30;;;0.50;;
8895;SDS011;4484;48.928;10.066;2023-03-14T05:00:48;1.83;;;0.33;;
8895;SDS011;4484;48.928;10.066;2023-03-14T05:03:34;3.00;;;0.70;;
8895;SDS011;4484;48.928;10.066;2023-03-14T05:06:12;0.80;;;0.40;;
8895;SDS011;4484;48.928;10.066;2023-03-14T05:08:58;0.57;;;0.40;;
8895;SDS011;4484;48.928;10.066;2023-03-14T05:11:58;0.37;;;0.30;;
8895;SDS011;4484;48.928;10.066;2023-03-14T05:14:43;2.73;;;0.70;;
8895;SDS011;4484;48.928;10.066;2023-03-14T05:17:49;0.90;;;0.50;;
8895;SDS011;4484;48.928;10.066;2023-03-14T05:20:39;3.23;;;0.57;;
8895;SDS011;4484;48.928;10.066;2023-03-14T05:23:21;1.23;;;0.40;;
8895;SDS011;4484;48.928;10.066;2023-03-14T05:26:04;1.40;;;0.30;;
8895;SDS011;4484;48.928;10.066;2023-03-14T05:28:51;3.63;;;0.40;;
8895;SDS011;4484;48.928;10.066;2023-03-14T05:31:31;3.50;;;0.63;;
8895;SDS011;4484;48.928;10.066;2023-03-14T05:34:09;1.43;;;0.50;;
8895;SDS011;4484;48.928;10.066;2023-03-14T05:36:57;1.03;;;0.50;;
8895;SDS011;4484;48.928;10.066;2023-03-14T05:39:42;1.33;;;0.53;;
8895;SDS011;4484;48.928;10.066;2023-03-14T05:42:28;4.17;;;1.80;;
8895;SDS011;4484;48.928;10.066;2023-03-14T05:45:10;5.40;;;2.87;;
8895;SDS011;4484;48.928;10.066;2023-03-14T05:47:56;2.67;;;1.20;;
8895;SDS011;4484;48.928;10.066;2023-03-14T05:50:55;1.43;;;0.70;;
8895;SDS011;4484;48.928;10.066;2023-03-14T05:53:34;3.67;;;0.80;;
8895;SDS011;4484;48.928;10.066;2023-03-14T05:56:20;1.50;;;0.70;;
8895;SDS011;4484;48.928;10.066;2023-03-14T05:59:04;2.83;;;0.80;;
8895;SDS011;4484;48.928;10.066;2023-03-14T06:01:52;1.13;;;0.70;;
8895;SDS011;4484;48.928;10.066;2023-03-14T06:04:23;4.70;;;1.47;;
8895;SDS011;4484;48.928;10.066;2023-03-14T06:06:54;2.30;;;0.97;;
8895;SDS011;4484;48.928;10.066;2023-03-14T06:09:21;4.97;;;2.00;;
8895;SDS011;4484;48.928;10.066;2023-03-14T06:11:51;13.80;;;5.60;;
8895;SDS011;4484;48.928;10.066;2023-03-14T06:14:18;6.67;;;3.20;;
8895;SDS011;4484;48.928;10.066;2023-03-14T06:16:46;2.80;;;0.80;;
8895;SDS011;4484;48.928;10.066;2023-03-14T06:19:18;4.07;;;1.10;;
8895;SDS011;4484;48.928;10.066;2023-03-14T06:21:45;5.87;;;2.13;;
8895;SDS011;4484;48.928;10.066;2023-03-14T06:24:12;5.33;;;2.03;;
8895;SDS011;4484;48.928;10.066;2023-03-14T06:26:44;4.07;;;0.90;;
8895;SDS011;4484;48.928;10.066;2023-03-14T06:29:11;3.70;;;1.00;;
8895;SDS011;4484;48.928;10.066;2023-03-14T06:31:39;6.63;;;2.00;;
8895;SDS011;4484;48.928;10.066;2023-03-14T06:34:07;6.13;;;1.50;;
8895;SDS011;4484;48.928;10.066;2023-03-14T06:36:34;1.83;;;0.90;;
8895;SDS011;4484;48.928;10.066;2023-03-14T06:39:01;2.00;;;0.90;;
8895;SDS011;4484;48.928;10.066;2023-03-14T06:41:30;3.23;;;1.10;;
8895;SDS011;4484;48.928;10.066;2023-03-14T06:43:59;5.57;;;1.53;;
8895;SDS011;4484;48.928;10.066;2023-03-14T06:46:26;5.80;;;2.27;;
8895;SDS011;4484;48.928;10.066;2023-03-14T06:48:53;5.17;;;1.77;;
8895;SDS011;4484;48.928;10.066;2023-03-14T06:51:20;4.90;;;1.53;;
8895;SDS011;4484;48.928;10.066;2023-03-14T06:53:48;7.00;;;1.93;;
8895;SDS011;4484;48.928;10.066;2023-03-14T06:56:16;2.60;;;1.10;;
8895;SDS011;4484;48.928;10.066;2023-03-14T06:58:43;3.97;;;1.00;;
8895;SDS011;4484;48.928;10.066;2023-03-14T07:01:17;3.60;;;1.00;;
8895;SDS011;4484;48.928;10.066;2023-03-14T07:03:51;2.17;;;0.90;;
8895;SDS011;4484;48.928;10.066;2023-03-14T07:06:20;3.97;;;0.53;;
8895;SDS011;4484;48.928;10.066;2023-03-14T07:08:47;3.17;;;0.73;;
8895;SDS011;4484;48.928;10.066;2023-03-14T07:11:16;2.60;;;0.50;;
8895;SDS011;4484;48.928;10.066;2023-03-14T07:13:43;1.10;;;0.60;;
8895;SDS011;4484;48.928;10.066;2023-03-14T07:16:10;2.40;;;0.60;;
8895;SDS011;4484;48.928;10.066;2023-03-14T07:18:37;6.60;;;0.83;;
8895;SDS011;4484;48.928;10.066;2023-03-14T07:21:05;3.13;;;0.73;;
8895;SDS011;4484;48.928;10.066;2023-03-14T07:23:33;1.60;;;0.70;;
8895;SDS011;4484;48.928;10.066;2023-03-14T07:26:00;2.40;;;0.90;;
8895;SDS011;4484;48.928;10.066;2023-03-14T07:28:28;2.60;;;1.13;;
8895;SDS011;4484;48.928;10.066;2023-03-14T07:31:01;4.73;;;0.90;;
8895;SDS011;4484;48.928;10.066;2023-03-14T07:33:30;3.17;;;0.90;;
8895;SDS011;4484;48.928;10.066;2023-03-14T07:35:59;1.93;;;0.73;;
8895;SDS011;4484;48.928;10.066;2023-03-14T07:38:26;4.03;;;0.90;;
8895;SDS011;4484;48.928;10.066;2023-03-14T07:41:12;3.03;;;0.83;;
8895;SDS011;4484;48.928;10.066;2023-03-14T07:43:46;3.87;;;0.70;;
8895;SDS011;4484;48.928;10.066;2023-03-14T07:46:13;4.03;;;0.60;;
8895;SDS011;4484;48.928;10.066;2023-03-14T07:48:40;2.93;;;0.63;;
8895;SDS011;4484;48.928;10.066;2023-03-14T07:51:08;2.73;;;0.70;;
8895;SDS011;4484;48.928;10.066;2023-03-14T07:53:34;4.13;;;0.50;;
8895;SDS011;4484;48.928;10.066;2023-03-14T07:56:01;1.07;;;0.50;;
8895;SDS011;4484;48.928;10.066;2023-03-14T07:58:28;4.57;;;1.47;;
8895;SDS011;4484;48.928;10.066;2023-03-14T08:00:55;0.40;;;0.40;;
8895;SDS011;4484;48.928;10.066;2023-03-14T08:03:24;3.50;;;0.80;;
8895;SDS011;4484;48.928;10.066;2023-03-14T08:05:51;1.63;;;0.50;;
8895;SDS011;4484;48.928;10.066;2023-03-14T08:08:18;3.47;;;0.70;;
8895;SDS011;4484;48.928;10.066;2023-03-14T08:10:45;2.37;;;1.10;;
8895;SDS011;4484;48.928;10.066;2023-03-14T08:13:12;2.70;;;0.90;;
8895;SDS011;4484;48.928;10.066;2023-03-14T08:15:39;2.80;;;0.77;;
8895;SDS011;4484;48.928;10.066;2023-03-14T08:18:06;1.53;;;0.80;;
8895;SDS011;4484;48.928;10.066;2023-03-14T08:20:33;5.23;;;0.93;;
8895;SDS011;4484;48.928;10.066;2023-03-14T08:23:00;1.70;;;0.40;;
8895;SDS011;4484;48.928;10.066;2023-03-14T08:25:28;2.30;;;0.73;;
8895;SDS011;4484;48.928;10.066;2023-03-14T08:27:55;3.90;;;0.77;;
8895;SDS011;4484;48.928;10.066;2023-03-14T08:30:22;1.33;;;0.63;;
8895;SDS011;4484;48.928;10.066;2023-03-14T08:32:49;2.87;;;1.03;;
8895;SDS011;4484;48.928;10.066;2023-03-14T08:35:16;3.57;;;0.37;;
8895;SDS011;4484;48.928;10.066;2023-03-14T08:37:44;0.60;;;0.30;;
8895;SDS011;4484;48.928;10.066;2023-03-14T08:40:11;0.80;;;0.40;;
8895;SDS011;4484;48.928;10.066;2023-03-14T08:42:39;0.70;;;0.40;;
8895;SDS011;4484;48.928;10.066;2023-03-14T08:45:06;1.33;;;0.57;;
8895;SDS011;4484;48.928;10.066;2023-03-14T08:47:34;2.37;;;0.50;;
8895;SDS011;4484;48.928;10.066;2023-03-14T08:50:02;1.03;;;0.40;;
8895;SDS011;4484;48.928;10.066;2023-03-14T08:52:30;2.47;;;0.40;;
8895;SDS011;4484;48.928;10.066;2023-03-14T08:54:58;3.87;;;0.40;;
8895;SDS011;4484;48.928;10.066;2023-03-14T08:57:25;0.60;;;0.50;;
8895;SDS011;4484;48.928;10.066;2023-03-14T08:59:54;0.97;;;0.40;;
8895;SDS011;4484;48.928;10.066;2023-03-14T09:02:22;3.17;;;0.73;;
8895;SDS011;4484;48.928;10.066;2023-03-14T09:04:50;0.30;;;0.30;;
8895;SDS011;4484;48.928;10.066;2023-03-14T09:07:17;3.10;;;0.70;;
8895;SDS011;4484;48.928;10.066;2023-03-14T09:09:45;1.33;;;0.40;;
8895;SDS011;4484;48.928;10.066;2023-03-14T09:12:12;0.83;;;0.60;;
8895;SDS011;4484;48.928;10.066;2023-03-14T09:14:39;0.67;;;0.37;;
8895;SDS011;4484;48.928;10.066;2023-03-14T09:17:06;1.50;;;0.50;;
8895;SDS011;4484;48.928;10.066;2023-03-14T09:19:33;0.70;;;0.30;;
8895;SDS011;4484;48.928;10.066;2023-03-14T09:22:00;3.17;;;0.73;;
8895;SDS011;4484;48.928;10.066;2023-03-14T09:24:26;1.87;;;0.50;;
8895;SDS011;4484;48.928;10.066;2023-03-14T09:26:54;0.77;;;0.40;;
8895;SDS011;4484;48.928;10.066;2023-03-14T09:29:22;0.80;;;0.50;;
8895;SDS011;4484;48.928;10.066;2023-03-14T09:31:49;1.27;;;0.43;;
8895;SDS011;4484;48.928;10.066;2023-03-14T09:34:16;1.63;;;0.50;;
8895;SDS011;4484;48.928;10.066;2023-03-14T09:36:43;0.50;;;0.43;;
8895;SDS011;4484;48.928;10.066;2023-03-14T09:39:10;1.43;;;0.60;;
8895;SDS011;4484;48.928;10.066;2023-03-14T09:41:39;2.40;;;0.70;;
8895;SDS011;4484;48.928;10.066;2023-03-14T09:44:10;2.00;;;0.70;;
8895;SDS011;4484;48.928;10.066;2023-03-14T09:46:43;1.93;;;0.50;;
8895;SDS011;4484;48.928;10.066;2023-03-14T09:49:21;0.90;;;0.47;;
8895;SDS011;4484;48.928;10.066;2023-03-14T09:51:54;1.23;;;0.50;;
8895;SDS011;4484;48.928;10.066;2023-03-14T09:54:26;1.20;;;0.40;;
8895;SDS011;4484;48.928;10.066;2023-03-14T09:56:58;2.80;;;0.60;;
8895;SDS011;4484;48.928;10.066;2023-03-14T09:59:26;0.83;;;0.40;;
8895;SDS011;4484;48.928;10.066;2023-03-14T10:01:56;0.43;;;0.30;;
8895;SDS011;4484;48.928;10.066;2023-03-14T10:04:39;0.93;;;0.50;;
8895;SDS011;4484;48.928;10.066;2023-03-14T10:07:14;0.53;;;0.40;;
8895;SDS011;4484;48.928;10.066;2023-03-14T10:09:43;0.93;;;0.40;;
8895;SDS011;4484;48.928;10.066;2023-03-14T10:12:11;1.70;;;0.40;;
8895;SDS011;4484;48.928;10.066;2023-03-14T10:14:44;0.30;;;0.30;;
8895;SDS011;4484;48.928;10.066;2023-03-14T10:17:20;0.20;;;0.20;;
8895;SDS011;4484;48.928;10.066;2023-03-14T10:19:55;1.30;;;0.40;;
8895;SDS011;4484;48.928;10.066;2023-03-14T10:22:26;0.20;;;0.20;;
8895;SDS011;4484;48.928;10.066;2023-03-14T10:24:57;0.97;;;0.33;;
8895;SDS011;4484;48.928;10.066;2023-03-14T10:27:30;0.20;;;0.20;;
8895;SDS011;4484;48.928;10.066;2023-03-14T10:30:02;1.93;;;0.40;;
8895;SDS011;4484;48.928;10.066;2023-03-14T10:32:34;1.33;;;0.77;;
8895;SDS011;4484;48.928;10.066;2023-03-14T10:35:23;1.07;;;0.50;;
8895;SDS011;4484;48.928;10.066;2023-03-14T10:37:55;0.30;;;0.20;;
8895;SDS011;4484;48.928;10.066;2023-03-14T10:40:37;3.30;;;0.67;;
8895;SDS011;4484;48.928;10.066;2023-03-14T10:43:06;0.30;;;0.30;;
8895;SDS011;4484;48.928;10.066;2023-03-14T10:45:41;0.47;;;0.27;;
8895;SDS011;4484;48.928;10.066;2023-03-14T10:48:29;0.40;;;0.30;;
8895;SDS011;4484;48.928;10.066;2023-03-14T10:51:10;3.03;;;0.30;;
8895;SDS011;4484;48.928;10.066;2023-03-14T10:53:44;0.43;;;0.20;;
8895;SDS011;4484;48.928;10.066;2023-03-14T10:56:19;1.03;;;0.40;;
8895;SDS011;4484;48.928;10.066;2023-03-14T10:58:48;0.50;;;0.30;;
8895;SDS011;4484;48.928;10.066;2023-03-14T11:04:03;4.10;;;0.40;;
8895;SDS011;4484;48.928;10.066;2023-03-14T11:06:48;0.90;;;0.37;;
8895;SDS011;4484;48.928;10.066;2023-03-14T11:09:32;2.87;;;0.40;;
8895;SDS011;4484;48.928;10.066;2023-03-14T11:15:12;0.40;;;0.30;;
8895;SDS011;4484;48.928;10.066;2023-03-14T11:20:31;0.40;;;0.27;;
8895;SDS011;4484;48.928;10.066;2023-03-14T11:23:24;0.50;;;0.40;;
8895;SDS011;4484;48.928;10.066;2023-03-14T11:26:10;1.20;;;0.30;;
8895;SDS011;4484;48.928;10.066;2023-03-14T11:29:18;0.43;;;0.30;;
8895;SDS011;4484;48.928;10.066;2023-03-14T11:32:04;1.33;;;0.37;;
8895;SDS011;4484;48.928;10.066;2023-03-14T11:34:55;1.60;;;0.10;;
8895;SDS011;4484;48.928;10.066;2023-03-14T11:37:26;0.73;;;0.30;;
8895;SDS011;4484;48.928;10.066;2023-03-14T11:40:06;0.10;;;0.10;;
8895;SDS011;4484;48.928;10.066;2023-03-14T11:42:42;3.60;;;0.97;;
8895;SDS011;4484;48.928;10.066;2023-03-14T11:45:32;1.80;;;0.30;;
8895;SDS011;4484;48.928;10.066;2023-03-14T11:48:25;0.63;;;0.30;;
8895;SDS011;4484;48.928;10.066;2023-03-14T11:51:09;0.87;;;0.23;;
8895;SDS011;4484;48.928;10.066;2023-03-14T11:53:55;0.60;;;0.30;;
8895;SDS011;4484;48.928;10.066;2023-03-14T11:56:47;2.20;;;1.80;;
8895;SDS011;4484;48.928;10.066;2023-03-14T11:59:17;1.90;;;0.40;;
8895;SDS011;4484;48.928;10.066;2023-03-14T12:01:55;1.27;;;0.60;;
8895;SDS011;4484;48.928;10.066;2023-03-14T12:04:34;0.20;;;0.20;;
8895;SDS011;4484;48.928;10.066;2023-03-14T12:07:19;1.53;;;0.50;;
8895;SDS011;4484;48.928;10.066;2023-03-14T12:09:50;2.73;;;0.30;;
8895;SDS011;4484;48.928;10.066;2023-03-14T12:12:19;0.20;;;0.20;;
8895;SDS011;4484;48.928;10.066;2023-03-14T12:14:58;0.90;;;0.70;;
8895;SDS011;4484;48.928;10.066;2023-03-14T12:17:40;3.03;;;0.50;;
8895;SDS011;4484;48.928;10.066;2023-03-14T12:20:19;0.93;;;0.50;;
8895;SDS011;4484;48.928;10.066;2023-03-14T12:22:49;0.40;;;0.40;;
8895;SDS011;4484;48.928;10.066;2023-03-14T12:25:20;0.90;;;0.50;;
8895;SDS011;4484;48.928;10.066;2023-03-14T12:35:36;1.73;;;0.60;;
8895;SDS011;4484;48.928;10.066;2023-03-14T12:41:17;1.07;;;0.40;;
8895;SDS011;4484;48.928;10.066;2023-03-14T12:43:51;0.50;;;0.40;;
8895;SDS011;4484;48.928;10.066;2023-03-14T12:46:20;0.43;;;0.30;;
8895;SDS011;4484;48.928;10.066;2023-03-14T12:51:29;0.40;;;0.20;;
8895;SDS011;4484;48.928;10.066;2023-03-14T12:54:12;0.20;;;0.20;;
8895;SDS011;4484;48.928;10.066;2023-03-14T12:57:15;1.27;;;0.50;;
8895;SDS011;4484;48.928;10.066;2023-03-14T12:59:56;0.20;;;0.20;;
8895;SDS011;4484;48.928;10.066;2023-03-14T13:02:28;0.70;;;0.60;;
8895;SDS011;4484;48.928;10.066;2023-03-14T13:05:04;0.47;;;0.30;;
8895;SDS011;4484;48.928;10.066;2023-03-14T13:15:47;2.73;;;0.30;;
8895;SDS011;4484;48.928;10.066;2023-03-14T13:18:19;0.60;;;0.40;;
8895;SDS011;4484;48.928;10.066;2023-03-14T13:20:59;0.30;;;0.30;;
8895;SDS011;4484;48.928;10.066;2023-03-14T13:23:39;0.30;;;0.30;;
8895;SDS011;4484;48.928;10.066;2023-03-14T13:26:11;0.27;;;0.23;;
8895;SDS011;4484;48.928;10.066;2023-03-14T13:28:41;0.30;;;0.30;;
8895;SDS011;4484;48.928;10.066;2023-03-14T13:31:18;0.30;;;0.30;;
8895;SDS011;4484;48.928;10.066;2023-03-14T13:34:00;0.20;;;0.20;;
8895;SDS011;4484;48.928;10.066;2023-03-14T13:36:28;0.30;;;0.30;;
8895;SDS011;4484;48.928;10.066;2023-03-14T13:38:56;0.63;;;0.63;;
8895;SDS011;4484;48.928;10.066;2023-03-14T13:41:25;1.30;;;0.80;;
8895;SDS011;4484;48.928;10.066;2023-03-14T13:43:56;0.90;;;0.80;;
8895;SDS011;4484;48.928;10.066;2023-03-14T13:46:33;3.70;;;2.63;;
8895;SDS011;4484;48.928;10.066;2023-03-14T13:49:02;1.90;;;1.30;;
8895;SDS011;4484;48.928;10.066;2023-03-14T13:51:30;3.73;;;2.07;;
8895;SDS011;4484;48.928;10.066;2023-03-14T13:54:02;5.13;;;2.40;;
8895;SDS011;4484;48.928;10.066;2023-03-14T13:56:32;2.07;;;1.10;;
8895;SDS011;4484;48.928;10.066;2023-03-14T13:58:59;2.67;;;1.63;;
8895;SDS011;4484;48.928;10.066;2023-03-14T14:04:01;2.53;;;1.00;;
8895;SDS011;4484;48.928;10.066;2023-03-14T14:06:37;2.00;;;1.27;;
8895;SDS011;4484;48.928;10.066;2023-03-14T14:09:11;0.70;;;0.60;;
8895;SDS011;4484;48.928;10.066;2023-03-14T14:14:41;1.43;;;1.10;;
8895;SDS011;4484;48.928;10.066;2023-03-14T14:17:21;3.83;;;1.00;;
8895;SDS011;4484;48.928;10.066;2023-03-14T14:19:54;1.10;;;0.70;;
8895;SDS011;4484;48.928;10.066;2023-03-14T14:22:22;1.07;;;0.77;;
8895;SDS011;4484;48.928;10.066;2023-03-14T14:24:49;3.90;;;0.90;;
8895;SDS011;4484;48.928;10.066;2023-03-14T14:27:19;0.90;;;0.43;;
8895;SDS011;4484;48.928;10.066;2023-03-14T14:30:02;0.60;;;0.50;;
8895;SDS011;4484;48.928;10.066;2023-03-14T14:32:35;0.90;;;0.50;;
8895;SDS011;4484;48.928;10.066;2023-03-14T14:35:04;0.90;;;0.50;;
8895;SDS011;4484;48.928;10.066;2023-03-14T14:37:32;1.57;;;0.80;;
8895;SDS011;4484;48.928;10.066;2023-03-14T14:40:07;2.60;;;0.43;;
8895;SDS011;4484;48.928;10.066;2023-03-14T14:42:39;0.40;;;0.20;;
8895;SDS011;4484;48.928;10.066;2023-03-14T14:45:11;0.70;;;0.40;;
8895;SDS011;4484;48.928;10.066;2023-03-14T14:47:51;0.77;;;0.37;;
8895;SDS011;4484;48.928;10.066;2023-03-14T14:52:59;1.40;;;0.50;;
8895;SDS011;4484;48.928;10.066;2023-03-14T14:55:44;1.43;;;0.40;;
8895;SDS011;4484;48.928;10.066;2023-03-14T14:58:16;1.30;;;0.40;;
8895;SDS011;4484;48.928;10.066;2023-03-14T15:00:57;0.77;;;0.60;;
8895;SDS011;4484;48.928;10.066;2023-03-14T15:03:31;1.20;;;0.43;;
8895;SDS011;4484;48.928;10.066;2023-03-14T15:05:59;0.77;;;0.53;;
8895;SDS011;4484;48.928;10.066;2023-03-14T15:08:27;3.30;;;0.70;;
8895;SDS011;4484;48.928;10.066;2023-03-14T15:10:55;0.60;;;0.20;;
8895;SDS011;4484;48.928;10.066;2023-03-14T15:13:23;4.00;;;0.60;;
8895;SDS011;4484;48.928;10.066;2023-03-14T15:15:50;2.03;;;0.60;;
8895;SDS011;4484;48.928;10.066;2023-03-14T15:18:23;0.30;;;0.30;;
8895;SDS011;4484;48.928;10.066;2023-03-14T15:20:51;0.70;;;0.40;;
8895;SDS011;4484;48.928;10.066;2023-03-14T15:23:21;2.43;;;0.70;;
8895;SDS011;4484;48.928;10.066;2023-03-14T15:25:48;2.13;;;0.70;;
8895;SDS011;4484;48.928;10.066;2023-03-14T15:28:23;3.50;;;0.57;;
8895;SDS011;4484;48.928;10.066;2023-03-14T15:30:53;2.20;;;0.87;;
8895;SDS011;4484;48.928;10.066;2023-03-14T15:33:22;2.40;;;0.67;;
8895;SDS011;4484;48.928;10.066;2023-03-14T15:35:49;0.80;;;0.50;;
8895;SDS011;4484;48.928;10.066;2023-03-14T15:38:18;3.40;;;0.90;;
8895;SDS011;4484;48.928;10.066;2023-03-14T15:40:50;0.93;;;0.50;;
8895;SDS011;4484;48.928;10.066;2023-03-14T15:43:17;3.17;;;1.50;;
8895;SDS011;4484;48.928;10.066;2023-03-14T15:45:45;2.53;;;0.80;;
8895;SDS011;4484;48.928;10.066;2023-03-14T15:48:16;4.83;;;2.20;;
8895;SDS011;4484;48.928;10.066;2023-03-14T15:50:47;8.23;;;2.33;;
8895;SDS011;4484;48.928;10.066;2023-03-14T15:53:14;3.80;;;1.23;;
8895;SDS011;4484;48.928;10.066;2023-03-14T15:55:41;4.23;;;0.60;;
8895;SDS011;4484;48.928;10.066;2023-03-14T15:58:15;2.23;;;0.80;;
8895;SDS011;4484;48.928;10.066;2023-03-14T16:00:46;2.20;;;0.90;;
8895;SDS011;4484;48.928;10.066;2023-03-14T16:03:13;3.60;;;0.73;;
8895;SDS011;4484;48.928;10.066;2023-03-14T16:05:40;2.80;;;0.70;;
8895;SDS011;4484;48.928;10.066;2023-03-14T16:08:07;2.53;;;0.70;;
8895;SDS011;4484;48.928;10.066;2023-03-14T16:10:34;4.00;;;0.50;;
8895;SDS011;4484;48.928;10.066;2023-03-14T16:13:01;1.47;;;0.80;;
8895;SDS011;4484;48.928;10.066;2023-03-14T16:15:28;1.80;;;0.70;;
8895;SDS011;4484;48.928;10.066;2023-03-14T16:17:56;3.13;;;1.20;;